Time;durP1;ratioP1;P1;durP2;ratioP2;P2;SDS_P1;SDS_P2;PMS_P1;PMS_P2;Temp;Humidity;BMP_temperature;BMP_pressure;BME280_temperature;BME280_humidity;BME280_pressure;Samples;Min_cycle;Max_cycle;Signal;HPM_P1;HPM_P2
2024/01/09 00:01:32;;;;;;;18.17;8.85;;;-4.90;99.90;;;;;;4986742;28;20204;-69
2024/01/09 00:04:00;;;;;;;17.98;7.20;;;-4.90;99.90;;;;;;4970772;28;20278;-69
2024/01/09 00:06:28;;;;;;;16.33;6.50;;;-4.90;99.90;;;;;;4971666;28;20215;-70
2024/01/09 00:08:58;;;;;;;32.42;7.88;;;-4.90;99.90;;;;;;4963224;28;20294;-69
2024/01/09 00:11:26;;;;;;;15.55;5.13;;;-4.90;99.90;;;;;;4970725;28;20220;-69
2024/01/09 00:13:54;;;;;;;18.75;8.45;;;-4.90;99.90;;;;;;4978700;28;20218;-70
2024/01/09 00:16:24;;;;;;;16.45;6.93;;;-5.00;99.90;;;;;;4981257;28;20205;-69
2024/01/09 00:18:54;;;;;;;14.05;6.82;;;-5.00;99.90;;;;;;4975993;28;20303;-70
2024/01/09 00:21:22;;;;;;;14.45;6.18;;;-5.00;99.90;;;;;;4972686;28;20227;-71
2024/01/09 00:23:50;;;;;;;19.15;7.60;;;-5.00;99.90;;;;;;4984269;28;20219;-71
2024/01/09 00:26:21;;;;;;;18.75;7.80;;;-5.00;99.90;;;;;;4985426;28;20199;-70
2024/01/09 00:28:49;;;;;;;16.30;6.43;;;-5.00;99.90;;;;;;4972923;28;20211;-69
2024/01/09 00:31:16;;;;;;;17.52;8.02;;;-5.00;99.90;;;;;;4964724;28;20207;-70
2024/01/09 00:33:46;;;;;;;15.25;7.00;;;-5.00;99.90;;;;;;4964457;28;21024;-69
2024/01/09 00:36:15;;;;;;;16.50;8.20;;;-5.00;99.90;;;;;;4968609;28;20209;-70
2024/01/09 00:38:43;;;;;;;16.48;7.05;;;-5.10;99.90;;;;;;4982446;28;20369;-69
2024/01/09 00:41:11;;;;;;;19.27;8.88;;;-5.10;99.90;;;;;;4988523;28;20387;-69
2024/01/09 00:43:39;;;;;;;17.58;8.40;;;-5.10;99.90;;;;;;4986843;28;20618;-70
2024/01/09 00:46:07;;;;;;;19.67;7.15;;;-5.10;99.90;;;;;;4964739;28;20308;-69
2024/01/09 00:48:35;;;;;;;17.80;7.00;;;-5.20;99.90;;;;;;4972138;28;20246;-68
2024/01/09 00:51:05;;;;;;;17.70;8.20;;;-5.20;99.90;;;;;;4965191;28;20224;-70
2024/01/09 00:53:33;;;;;;;16.48;6.57;;;-5.20;99.90;;;;;;4965459;28;20235;-70
2024/01/09 00:56:01;;;;;;;18.63;8.70;;;-5.20;99.90;;;;;;4970268;28;20208;-69
2024/01/09 00:58:29;;;;;;;18.50;8.15;;;-5.20;99.90;;;;;;4969085;28;21047;-66
2024/01/09 01:00:57;;;;;;;19.92;7.45;;;-5.20;99.90;;;;;;4959688;28;20251;-68
2024/01/09 01:03:25;;;;;;;19.55;7.93;;;-5.20;99.90;;;;;;4960844;28;20224;-69
2024/01/09 01:05:53;;;;;;;16.08;7.90;;;-5.20;99.90;;;;;;4964999;28;20251;-69
2024/01/09 01:08:22;;;;;;;17.40;7.05;;;-5.20;99.90;;;;;;4961216;28;20299;-68
2024/01/09 01:10:51;;;;;;;11.40;4.85;;;-5.20;99.90;;;;;;4956389;28;20251;-69
2024/01/09 01:13:19;;;;;;;17.55;7.43;;;-5.20;99.90;;;;;;4966454;28;20242;-69
2024/01/09 01:15:46;;;;;;;12.15;5.53;;;-5.20;99.90;;;;;;4971588;28;20282;-69
2024/01/09 01:18:14;;;;;;;19.02;8.40;;;-5.20;99.90;;;;;;4970249;28;20212;-69
2024/01/09 01:20:42;;;;;;;16.35;7.00;;;-5.20;99.90;;;;;;4956062;28;20605;-70
2024/01/09 01:23:11;;;;;;;19.27;7.30;;;-5.20;99.90;;;;;;4958883;28;20867;-69
2024/01/09 01:25:40;;;;;;;20.20;8.20;;;-5.20;99.90;;;;;;4968543;28;20655;-68
2024/01/09 01:28:08;;;;;;;17.50;5.65;;;-5.30;99.90;;;;;;4967298;28;20664;-68
2024/01/09 01:30:36;;;;;;;18.08;6.78;;;-5.30;99.90;;;;;;4970393;28;20618;-69
2024/01/09 01:33:04;;;;;;;20.17;7.93;;;-5.30;99.90;;;;;;4970001;28;20343;-69
2024/01/09 01:35:32;;;;;;;20.70;8.57;;;-5.30;99.90;;;;;;4964217;28;20215;-68
2024/01/09 01:38:00;;;;;;;15.45;7.90;;;-5.30;99.90;;;;;;4965445;28;20220;-68
2024/01/09 01:40:28;;;;;;;17.13;7.55;;;-5.30;99.90;;;;;;4964286;28;20253;-69
2024/01/09 01:42:58;;;;;;;18.35;7.93;;;-5.40;99.90;;;;;;4959909;28;20247;-69
2024/01/09 01:45:27;;;;;;;16.33;7.43;;;-5.40;99.90;;;;;;4969129;28;20737;-68
2024/01/09 01:47:56;;;;;;;17.50;7.55;;;-5.40;99.90;;;;;;4964259;28;20238;-68
2024/01/09 01:50:24;;;;;;;17.98;8.20;;;-5.40;99.90;;;;;;4965900;28;20212;-68
2024/01/09 01:52:53;;;;;;;16.65;7.18;;;-5.30;99.90;;;;;;4968660;28;20235;-69
2024/01/09 01:55:24;;;;;;;15.18;6.75;;;-5.40;99.90;;;;;;4958937;28;20231;-68
2024/01/09 01:57:54;;;;;;;20.15;7.20;;;-5.30;99.90;;;;;;4962666;28;20228;-68
2024/01/09 02:00:25;;;;;;;20.30;8.10;;;-5.30;99.90;;;;;;4968800;28;20207;-69
2024/01/09 02:02:54;;;;;;;19.70;8.20;;;-5.30;99.90;;;;;;4955507;28;20231;-69
2024/01/09 02:05:24;;;;;;;12.45;5.43;;;-5.30;99.90;;;;;;4968890;28;20670;-69
2024/01/09 02:07:54;;;;;;;16.38;8.25;;;-5.40;99.90;;;;;;4963779;28;20258;-69
2024/01/09 02:10:23;;;;;;;21.95;7.18;;;-5.40;99.90;;;;;;4962330;28;20220;-69
2024/01/09 02:12:51;;;;;;;12.90;5.13;;;-5.40;99.90;;;;;;4966336;28;20313;-69
2024/01/09 02:15:20;;;;;;;27.38;9.90;;;-5.40;99.90;;;;;;4961063;28;20232;-70
2024/01/09 02:17:50;;;;;;;15.35;6.05;;;-5.30;99.90;;;;;;4962137;28;20319;-69
2024/01/09 02:20:21;;;;;;;16.02;5.97;;;-5.30;99.80;;;;;;4961941;28;20315;-69
2024/01/09 02:22:49;;;;;;;16.15;6.22;;;-5.30;99.90;;;;;;4967916;28;20861;-69
2024/01/09 02:25:17;;;;;;;20.08;7.93;;;-5.40;99.90;;;;;;4963820;28;20776;-69
2024/01/09 02:27:54;;;;;;;18.65;7.60;;;-5.40;99.90;;;;;;4967738;28;20582;-69
2024/01/09 02:30:24;;;;;;;18.50;7.55;;;-5.40;99.70;;;;;;4968250;28;20697;-69
2024/01/09 02:32:52;;;;;;;14.63;6.22;;;-5.40;99.90;;;;;;4961965;28;20216;-69
2024/01/09 02:35:21;;;;;;;18.38;7.60;;;-5.40;99.90;;;;;;4964447;28;20223;-69
2024/01/09 02:37:49;;;;;;;20.13;8.90;;;-5.40;99.70;;;;;;4966980;28;20214;-69
2024/01/09 02:40:17;;;;;;;19.27;7.78;;;-5.50;99.90;;;;;;4966856;28;20220;-69
2024/01/09 02:42:45;;;;;;;16.70;7.10;;;-5.50;99.90;;;;;;4956650;28;20221;-69
2024/01/09 02:45:13;;;;;;;17.42;6.90;;;-5.50;99.90;;;;;;4965736;28;20650;-69
2024/01/09 02:47:43;;;;;;;18.67;9.40;;;-5.50;99.90;;;;;;4957306;28;20224;-68
2024/01/09 02:50:11;;;;;;;18.67;7.32;;;-5.60;99.90;;;;;;4968973;28;20224;-69
2024/01/09 02:52:39;;;;;;;20.65;7.68;;;-5.60;99.90;;;;;;4961720;28;20225;-69
2024/01/09 02:55:07;;;;;;;20.80;8.00;;;-5.60;99.90;;;;;;4965260;28;20663;-69
2024/01/09 02:57:40;;;;;;;19.40;9.18;;;-5.60;99.80;;;;;;4960719;28;20231;-69
2024/01/09 03:00:09;;;;;;;18.73;8.23;;;-5.60;99.80;;;;;;4963147;28;20235;-69
2024/01/09 03:02:37;;;;;;;17.63;7.50;;;-5.50;99.50;;;;;;4969268;28;20248;-69
2024/01/09 03:05:07;;;;;;;15.80;6.72;;;-5.50;99.50;;;;;;4965541;28;20220;-69
2024/01/09 03:07:36;;;;;;;20.20;8.07;;;-5.50;99.50;;;;;;4969964;28;20611;-69
2024/01/09 03:10:04;;;;;;;18.45;8.25;;;-5.60;99.50;;;;;;4969200;28;20248;-69
2024/01/09 03:12:32;;;;;;;17.73;9.05;;;-5.60;99.70;;;;;;4968017;28;20324;-69
2024/01/09 03:15:00;;;;;;;16.77;7.18;;;-5.70;99.80;;;;;;4962888;28;20286;-69
2024/01/09 03:17:28;;;;;;;19.08;8.35;;;-5.60;99.70;;;;;;4971417;28;20232;-69
2024/01/09 03:19:56;;;;;;;16.40;7.10;;;-5.60;99.50;;;;;;4967398;28;20223;-69
2024/01/09 03:22:26;;;;;;;20.35;7.72;;;-5.60;99.50;;;;;;4971149;28;20215;-69
2024/01/09 03:24:54;;;;;;;19.20;7.53;;;-5.60;99.30;;;;;;4980369;28;20223;-69
2024/01/09 03:27:22;;;;;;;17.70;7.38;;;-5.60;99.30;;;;;;4985733;28;20230;-69
2024/01/09 03:29:50;;;;;;;19.08;7.43;;;-5.60;99.40;;;;;;4977223;28;20235;-68
2024/01/09 03:32:18;;;;;;;18.83;7.90;;;-5.70;99.40;;;;;;4969473;28;20219;-69
2024/01/09 03:34:46;;;;;;;16.10;7.10;;;-5.60;99.10;;;;;;4974020;28;20237;-69
2024/01/09 03:37:14;;;;;;;14.32;6.10;;;-5.60;99.30;;;;;;4976072;28;20232;-69
2024/01/09 03:39:45;;;;;;;19.95;8.48;;;-5.60;99.20;;;;;;4971083;28;20215;-69
2024/01/09 03:42:13;;;;;;;22.13;8.07;;;-5.60;99.10;;;;;;4967709;28;20235;-68
2024/01/09 03:44:41;;;;;;;17.80;6.95;;;-5.70;99.00;;;;;;4967937;28;20216;-69
2024/01/09 03:47:09;;;;;;;22.58;7.68;;;-5.70;99.30;;;;;;4965244;28;20315;-69
2024/01/09 03:49:37;;;;;;;18.63;6.25;;;-5.70;99.10;;;;;;4959422;28;20323;-69
2024/01/09 03:52:06;;;;;;;18.70;8.00;;;-5.70;99.20;;;;;;4965295;28;20311;-69
2024/01/09 03:54:34;;;;;;;22.10;6.57;;;-5.70;99.20;;;;;;4970164;28;20247;-69
2024/01/09 03:57:03;;;;;;;22.33;7.40;;;-5.70;99.20;;;;;;4961324;28;20224;-69
2024/01/09 03:59:31;;;;;;;19.65;6.47;;;-5.70;99.10;;;;;;4961133;28;20234;-68
2024/01/09 04:01:59;;;;;;;23.50;10.57;;;-5.70;99.10;;;;;;4954559;28;20232;-68
2024/01/09 04:04:27;;;;;;;17.40;8.25;;;-5.70;99.00;;;;;;4962346;28;20258;-69
2024/01/09 04:06:56;;;;;;;21.15;8.15;;;-5.70;99.00;;;;;;4958701;28;20643;-69
2024/01/09 04:09:24;;;;;;;17.77;7.65;;;-5.70;98.90;;;;;;4964987;28;20252;-69
2024/01/09 04:11:51;;;;;;;14.05;5.88;;;-5.60;98.90;;;;;;4968050;28;20227;-69
2024/01/09 04:14:21;;;;;;;20.63;7.18;;;-5.70;99.20;;;;;;4969021;28;20643;-69
2024/01/09 04:16:49;;;;;;;16.67;6.07;;;-5.70;98.90;;;;;;4965009;28;20225;-68
2024/01/09 04:19:17;;;;;;;15.85;7.32;;;-5.70;98.60;;;;;;4962545;28;20234;-69
2024/01/09 04:21:45;;;;;;;18.35;6.53;;;-5.70;98.70;;;;;;4970169;28;20215;-69
2024/01/09 04:24:13;;;;;;;18.02;6.32;;;-5.70;98.60;;;;;;4971894;28;20922;-69
2024/01/09 04:26:41;;;;;;;17.95;8.35;;;-5.70;98.50;;;;;;4959476;28;20267;-69
2024/01/09 04:29:09;;;;;;;17.55;6.75;;;-5.70;98.50;;;;;;4958812;28;20230;-68
2024/01/09 04:31:38;;;;;;;19.35;6.88;;;-5.70;98.90;;;;;;4960389;28;20220;-69
2024/01/09 04:34:06;;;;;;;20.92;6.38;;;-5.70;98.60;;;;;;4960960;28;20244;-68
2024/01/09 04:36:34;;;;;;;16.23;6.63;;;-5.70;98.70;;;;;;4960040;28;20326;-69
2024/01/09 04:39:02;;;;;;;19.90;8.20;;;-5.70;98.70;;;;;;4963014;28;20258;-69
2024/01/09 04:41:30;;;;;;;15.60;6.20;;;-5.70;98.60;;;;;;4963908;28;20217;-69
2024/01/09 04:43:58;;;;;;;20.40;7.35;;;-5.70;98.50;;;;;;4963261;28;20674;-70
2024/01/09 04:46:26;;;;;;;18.13;5.60;;;-5.70;98.30;;;;;;4963881;28;20677;-69
2024/01/09 04:48:55;;;;;;;12.43;5.43;;;-5.70;98.40;;;;;;4969818;28;20843;-68
2024/01/09 04:51:24;;;;;;;20.17;6.90;;;-5.70;98.20;;;;;;4964606;28;20218;-68
2024/01/09 04:53:51;;;;;;;20.92;7.07;;;-5.60;98.70;;;;;;4962060;28;20216;-68
2024/01/09 04:56:20;;;;;;;15.05;6.80;;;-5.70;98.30;;;;;;4957207;28;20235;-68
2024/01/09 04:58:53;;;;;;;16.80;7.50;;;-5.70;98.20;;;;;;4963958;28;20215;-69
2024/01/09 05:01:21;;;;;;;15.68;6.40;;;-5.70;98.20;;;;;;4962221;28;20204;-68
2024/01/09 05:03:50;;;;;;;16.15;6.78;;;-5.70;98.00;;;;;;4962139;28;20227;-68
2024/01/09 05:06:21;;;;;;;16.63;6.75;;;-5.70;98.10;;;;;;4976998;28;20195;-68
2024/01/09 05:08:49;;;;;;;18.20;6.82;;;-5.70;98.10;;;;;;4960341;28;20254;-68
2024/01/09 05:11:17;;;;;;;17.27;6.88;;;-5.70;97.80;;;;;;4957163;28;20271;-65
2024/01/09 05:13:46;;;;;;;15.63;5.72;;;-5.70;97.90;;;;;;4960303;28;20878;-69
2024/01/09 05:16:15;;;;;;;18.00;6.53;;;-5.60;97.80;;;;;;4962913;28;20234;-67
2024/01/09 05:18:44;;;;;;;14.90;4.50;;;-5.60;97.80;;;;;;4956719;28;20223;-70
2024/01/09 05:21:12;;;;;;;18.95;7.95;;;-5.70;97.40;;;;;;4966078;28;20219;-68
2024/01/09 05:23:41;;;;;;;13.38;6.10;;;-5.70;97.60;;;;;;4967561;28;20251;-68
2024/01/09 05:26:10;;;;;;;11.88;4.97;;;-5.70;97.60;;;;;;4969312;28;20211;-68
2024/01/09 05:28:38;;;;;;;17.92;6.00;;;-5.70;97.40;;;;;;4968859;28;20232;-69
2024/01/09 05:31:06;;;;;;;18.50;7.10;;;-5.70;97.40;;;;;;4967332;28;20208;-67
2024/01/09 05:33:35;;;;;;;16.40;6.35;;;-5.70;97.40;;;;;;4968874;28;20232;-68
2024/01/09 05:36:04;;;;;;;17.33;7.35;;;-5.70;97.30;;;;;;4961502;28;20869;-67
2024/01/09 05:38:32;;;;;;;15.90;6.53;;;-5.80;97.40;;;;;;4961848;28;20224;-68
2024/01/09 05:41:02;;;;;;;17.02;6.25;;;-5.80;97.60;;;;;;4963032;28;20250;-66
2024/01/09 05:43:30;;;;;;;17.30;7.18;;;-5.70;97.50;;;;;;4966533;28;20231;-67
2024/01/09 05:45:58;;;;;;;16.35;7.05;;;-5.80;97.60;;;;;;4957827;28;20570;-68
2024/01/09 05:48:25;;;;;;;14.95;7.15;;;-5.80;97.60;;;;;;4980272;28;20202;-71
2024/01/09 05:50:54;;;;;;;17.98;8.38;;;-5.80;97.50;;;;;;4983094;28;20210;-68
2024/01/09 05:53:22;;;;;;;16.15;6.95;;;-5.80;97.60;;;;;;4963862;28;20255;-69
2024/01/09 05:55:50;;;;;;;15.15;6.18;;;-5.90;97.80;;;;;;4969052;28;20240;-68
2024/01/09 05:58:19;;;;;;;18.55;7.13;;;-5.90;98.00;;;;;;4969029;28;20208;-67
2024/01/09 06:00:47;;;;;;;16.05;6.18;;;-5.90;97.80;;;;;;4968741;28;20215;-68
2024/01/09 06:03:15;;;;;;;18.98;6.45;;;-5.90;97.70;;;;;;4968964;28;20227;-69
2024/01/09 06:05:43;;;;;;;17.17;7.93;;;-5.90;97.50;;;;;;4968779;28;20503;-69
2024/01/09 06:08:11;;;;;;;22.02;8.48;;;-5.80;97.60;;;;;;4967110;28;20632;-68
2024/01/09 06:10:39;;;;;;;16.45;7.63;;;-5.90;97.30;;;;;;4963976;28;20235;-69
2024/01/09 06:13:07;;;;;;;18.60;8.48;;;-5.80;97.40;;;;;;4968293;28;20275;-68
2024/01/09 06:15:37;;;;;;;21.08;6.50;;;-5.80;97.40;;;;;;4968619;28;20266;-69
2024/01/09 06:18:05;;;;;;;15.77;5.88;;;-5.80;97.40;;;;;;4968649;28;20642;-69
2024/01/09 06:20:33;;;;;;;15.13;5.55;;;-5.80;97.50;;;;;;4968120;28;20219;-70
2024/01/09 06:23:01;;;;;;;14.07;6.35;;;-5.90;97.50;;;;;;4968218;28;20324;-69
2024/01/09 06:25:29;;;;;;;15.27;6.30;;;-5.90;97.40;;;;;;4966006;28;20227;-68
2024/01/09 06:27:57;;;;;;;17.38;5.85;;;-5.80;97.20;;;;;;4967736;28;20266;-69
2024/01/09 06:30:25;;;;;;;17.52;6.10;;;-5.90;97.30;;;;;;4967741;28;20700;-69
2024/01/09 06:32:55;;;;;;;17.25;6.90;;;-5.90;97.30;;;;;;4968046;28;20228;-69
2024/01/09 06:35:23;;;;;;;17.55;6.97;;;-5.90;97.20;;;;;;4967709;28;20232;-69
2024/01/09 06:37:52;;;;;;;15.27;6.80;;;-5.90;97.30;;;;;;4965299;28;20203;-69
2024/01/09 06:40:20;;;;;;;16.35;5.93;;;-5.90;97.40;;;;;;4971403;28;20298;-69
2024/01/09 06:42:48;;;;;;;20.10;6.57;;;-5.90;97.20;;;;;;4969040;28;20247;-69
2024/01/09 06:45:16;;;;;;;17.23;7.45;;;-5.80;97.20;;;;;;4984435;28;20203;-70
2024/01/09 06:47:45;;;;;;;15.05;6.75;;;-5.80;97.20;;;;;;4982410;28;20250;-69
2024/01/09 06:50:14;;;;;;;16.20;6.28;;;-5.80;97.30;;;;;;4976969;28;20293;-69
2024/01/09 06:53:00;;;;;;;14.18;5.63;;;-5.80;97.20;;;;;;4958602;28;20309;-70
2024/01/09 06:55:28;;;;;;;16.77;6.00;;;-5.90;97.40;;;;;;4970935;28;20302;-69
2024/01/09 06:57:56;;;;;;;17.40;6.88;;;-5.80;97.30;;;;;;4972585;28;20653;-70
2024/01/09 07:00:24;;;;;;;14.98;5.45;;;-5.80;97.20;;;;;;4972021;28;20251;-70
2024/01/09 07:02:52;;;;;;;18.45;6.85;;;-5.90;97.20;;;;;;4965823;28;20227;-69
2024/01/09 07:05:22;;;;;;;15.75;5.90;;;-5.90;97.10;;;;;;4972457;28;20222;-69
2024/01/09 07:07:50;;;;;;;18.17;7.40;;;-5.80;97.20;;;;;;4972171;28;20220;-69
2024/01/09 07:10:19;;;;;;;19.92;8.13;;;-5.90;97.20;;;;;;4972078;28;20223;-70
2024/01/09 07:12:47;;;;;;;18.58;6.82;;;-5.80;97.40;;;;;;4972052;28;20601;-70
2024/01/09 07:15:15;;;;;;;13.60;6.32;;;-5.90;97.40;;;;;;4978723;28;20211;-69
2024/01/09 07:17:45;;;;;;;14.65;6.10;;;-5.90;97.50;;;;;;4972408;28;20239;-70
2024/01/09 07:20:14;;;;;;;17.85;6.75;;;-6.00;97.50;;;;;;4972055;28;20941;-69
2024/01/09 07:22:44;;;;;;;14.55;7.30;;;-5.90;97.90;;;;;;4961801;28;20231;-70
2024/01/09 07:25:16;;;;;;;17.98;7.22;;;-5.90;97.60;;;;;;4977796;28;20673;-71
2024/01/09 07:27:44;;;;;;;17.10;7.47;;;-5.90;97.50;;;;;;4978949;28;20565;-70
2024/01/09 07:30:13;;;;;;;19.38;5.72;;;-5.90;97.60;;;;;;4975046;28;20203;-70
2024/01/09 07:32:41;;;;;;;19.00;9.48;;;-5.90;97.70;;;;;;4981175;28;20196;-70
2024/01/09 07:35:10;;;;;;;17.73;6.65;;;-5.90;97.70;;;;;;4980478;28;20210;-71
2024/01/09 07:37:38;;;;;;;16.55;8.70;;;-5.90;97.90;;;;;;4981955;28;20226;-70
2024/01/09 07:40:09;;;;;;;19.23;8.50;;;-5.90;97.80;;;;;;4973686;28;20211;-70
2024/01/09 07:42:37;;;;;;;18.75;7.95;;;-5.90;97.90;;;;;;4971222;28;20204;-71
2024/01/09 07:45:20;;;;;;;18.90;8.82;;;-5.90;98.10;;;;;;4974419;28;20654;-70
2024/01/09 07:47:48;;;;;;;18.20;7.63;;;-5.90;97.90;;;;;;4977158;28;20191;-70
2024/01/09 07:50:16;;;;;;;15.00;6.95;;;-5.90;97.90;;;;;;4981128;28;20589;-71
2024/01/09 07:52:44;;;;;;;16.60;6.88;;;-5.80;98.70;;;;;;4976239;28;20291;-70
2024/01/09 07:55:14;;;;;;;19.83;6.55;;;-5.70;98.40;;;;;;4971590;28;20208;-70
2024/01/09 07:57:42;;;;;;;19.08;7.78;;;-5.80;98.40;;;;;;4978414;28;20220;-71
2024/01/09 08:00:11;;;;;;;19.27;8.25;;;-5.80;99.10;;;;;;4980520;28;20663;-70
2024/01/09 08:02:39;;;;;;;16.48;6.65;;;-5.70;99.00;;;;;;4981731;28;20253;-70
2024/01/09 08:05:08;;;;;;;17.27;6.55;;;-5.70;99.10;;;;;;4977448;28;20215;-70
2024/01/09 08:07:36;;;;;;;20.80;7.28;;;-5.60;98.40;;;;;;4970667;28;20218;-70
2024/01/09 08:10:05;;;;;;;18.33;7.40;;;-5.60;98.40;;;;;;4970679;28;20226;-70
2024/01/09 08:12:34;;;;;;;15.75;7.57;;;-5.50;98.50;;;;;;4962837;28;20216;-70
2024/01/09 08:15:03;;;;;;;19.40;7.78;;;-5.40;98.80;;;;;;4970944;28;20262;-70
2024/01/09 08:17:31;;;;;;;15.93;7.00;;;-5.30;98.30;;;;;;4970759;28;20746;-70
2024/01/09 08:20:00;;;;;;;14.43;6.10;;;-5.20;98.30;;;;;;4964151;28;20278;-71
2024/01/09 08:22:28;;;;;;;15.70;7.20;;;-5.10;98.00;;;;;;4970747;28;20211;-70
2024/01/09 08:24:56;;;;;;;22.23;7.93;;;-5.00;98.10;;;;;;4970439;28;20216;-71
2024/01/09 08:27:24;;;;;;;17.02;9.00;;;-5.00;98.50;;;;;;4970839;28;20764;-71
2024/01/09 08:29:54;;;;;;;18.58;6.38;;;-4.90;97.70;;;;;;4970526;28;20223;-70
2024/01/09 08:32:22;;;;;;;16.67;6.82;;;-4.80;96.10;;;;;;4970391;28;20310;-70
2024/01/09 08:34:51;;;;;;;20.10;7.40;;;-4.70;96.40;;;;;;4970445;28;20250;-70
2024/01/09 08:37:19;;;;;;;15.57;7.15;;;-4.70;96.60;;;;;;4970933;28;20231;-70
2024/01/09 08:39:47;;;;;;;20.83;8.50;;;-4.70;96.00;;;;;;4962657;28;20669;-70
2024/01/09 08:42:15;;;;;;;17.80;7.65;;;-4.70;96.60;;;;;;4970413;28;20208;-71
2024/01/09 08:44:43;;;;;;;18.55;7.93;;;-4.70;97.40;;;;;;4970136;28;20236;-70
2024/01/09 08:47:13;;;;;;;19.48;7.70;;;-4.60;96.30;;;;;;4970495;28;20593;-70
2024/01/09 08:49:41;;;;;;;18.75;7.65;;;-4.60;95.60;;;;;;4970334;28;20239;-70
2024/01/09 08:52:09;;;;;;;15.60;6.70;;;-4.50;94.80;;;;;;4967435;28;20242;-69
2024/01/09 08:54:37;;;;;;;20.80;6.43;;;-4.50;94.70;;;;;;4970328;28;20239;-69
2024/01/09 08:57:06;;;;;;;15.05;6.75;;;-4.40;94.50;;;;;;4970567;28;20898;-71
2024/01/09 08:59:33;;;;;;;20.08;8.45;;;-4.40;95.50;;;;;;4969717;28;20215;-69
2024/01/09 09:02:01;;;;;;;22.05;7.38;;;-4.30;95.10;;;;;;4970498;28;20340;-69
2024/01/09 09:04:30;;;;;;;18.83;7.40;;;-4.20;94.80;;;;;;4973682;28;20284;-70
2024/01/09 09:06:58;;;;;;;17.65;8.40;;;-4.10;95.30;;;;;;4970242;28;20303;-69
2024/01/09 09:09:27;;;;;;;19.10;7.85;;;-4.00;94.20;;;;;;4969884;28;20291;-70
2024/01/09 09:11:55;;;;;;;18.67;7.80;;;-3.90;94.00;;;;;;4969609;28;20223;-70
2024/01/09 09:14:23;;;;;;;17.23;6.55;;;-3.90;93.40;;;;;;4970309;28;20231;-69
2024/01/09 09:16:52;;;;;;;14.65;6.30;;;-3.80;93.60;;;;;;4970182;28;20235;-70
2024/01/09 09:19:22;;;;;;;18.23;8.55;;;-3.60;94.50;;;;;;4962440;28;20267;-70
2024/01/09 09:21:53;;;;;;;23.00;8.38;;;-3.40;93.50;;;;;;4969500;28;20216;-70
2024/01/09 09:24:21;;;;;;;18.58;7.63;;;-3.40;93.60;;;;;;4969877;28;20298;-70
2024/01/09 09:26:49;;;;;;;21.63;8.40;;;-3.20;93.50;;;;;;4969944;28;20777;-70
2024/01/09 09:29:17;;;;;;;19.48;8.00;;;-3.00;93.70;;;;;;4973100;28;20205;-70
2024/01/09 09:31:59;;;;;;;19.05;7.88;;;-2.90;93.10;;;;;;4962935;28;20218;-70
2024/01/09 09:34:27;;;;;;;21.10;8.27;;;-2.80;92.50;;;;;;4969698;28;20321;-70
2024/01/09 09:36:56;;;;;;;18.00;8.07;;;-2.70;92.70;;;;;;4967090;28;20392;-70
2024/01/09 09:39:24;;;;;;;20.92;6.90;;;-2.80;92.50;;;;;;4969560;28;20213;-69
2024/01/09 09:41:57;;;;;;;18.38;7.80;;;-2.80;92.70;;;;;;4969292;28;20266;-70
2024/01/09 09:44:26;;;;;;;19.67;7.70;;;-2.80;93.10;;;;;;4957073;28;20232;-70
2024/01/09 09:46:55;;;;;;;19.73;8.43;;;-2.70;92.90;;;;;;4969345;28;20256;-70
2024/01/09 09:49:23;;;;;;;18.40;7.82;;;-2.70;92.80;;;;;;4969274;28;20207;-70
2024/01/09 09:51:54;;;;;;;21.27;8.32;;;-2.60;92.30;;;;;;4969390;28;20601;-70
2024/01/09 09:54:25;;;;;;;17.42;7.50;;;-2.50;91.80;;;;;;4969301;28;20447;-70
2024/01/09 09:56:53;;;;;;;17.67;8.85;;;-2.50;91.60;;;;;;4969546;28;20214;-70
2024/01/09 09:59:21;;;;;;;17.75;7.80;;;-2.40;92.40;;;;;;4967710;28;20231;-70
2024/01/09 10:01:50;;;;;;;19.80;8.52;;;-2.40;91.10;;;;;;4968804;28;20207;-70
2024/01/09 10:04:29;;;;;;;17.48;8.10;;;-2.30;91.10;;;;;;4969113;28;20315;-70
2024/01/09 10:06:58;;;;;;;18.80;8.35;;;-2.20;91.40;;;;;;4969609;28;20222;-70
2024/01/09 10:09:33;;;;;;;21.85;8.45;;;-2.20;90.80;;;;;;4969172;28;20219;-70
2024/01/09 10:12:01;;;;;;;17.70;7.40;;;-2.20;89.10;;;;;;4971135;28;20226;-70
2024/01/09 10:14:29;;;;;;;20.25;9.27;;;-2.30;90.40;;;;;;4973483;28;20331;-70
2024/01/09 10:16:59;;;;;;;16.98;8.50;;;-2.30;91.40;;;;;;4971880;28;20712;-70
2024/01/09 10:19:28;;;;;;;17.35;8.40;;;-2.20;90.30;;;;;;4973096;28;20210;-70
2024/01/09 10:21:56;;;;;;;16.60;7.40;;;-2.10;90.80;;;;;;4973032;28;20734;-70
2024/01/09 10:24:23;;;;;;;18.08;8.00;;;-1.90;89.40;;;;;;4973112;28;20249;-70
2024/01/09 10:26:54;;;;;;;21.25;8.70;;;-1.70;89.10;;;;;;4974296;28;20560;-70
2024/01/09 10:29:23;;;;;;;19.52;9.55;;;-1.20;89.20;;;;;;4967764;28;20200;-70
2024/01/09 10:31:51;;;;;;;18.70;8.38;;;-0.40;86.40;;;;;;4965195;28;20219;-70
2024/01/09 10:34:19;;;;;;;23.55;9.30;;;-0.10;80.30;;;;;;4973227;28;20318;-71
2024/01/09 10:36:47;;;;;;;17.20;8.65;;;0.40;79.70;;;;;;4973167;28;20213;-71
2024/01/09 10:39:15;;;;;;;17.48;7.63;;;1.00;79.90;;;;;;4972988;28;20291;-70
2024/01/09 10:41:44;;;;;;;19.77;8.65;;;1.50;75.70;;;;;;4974573;28;20416;-70
2024/01/09 10:44:15;;;;;;;19.48;8.60;;;1.90;75.00;;;;;;4974301;28;20230;-71
2024/01/09 10:46:44;;;;;;;19.23;8.40;;;2.20;73.00;;;;;;4987144;28;20363;-70
2024/01/09 10:49:13;;;;;;;19.50;9.47;;;2.60;69.60;;;;;;4987295;28;20457;-70
2024/01/09 10:51:43;;;;;;;19.80;8.70;;;2.50;68.20;;;;;;4986651;28;20827;-70
2024/01/09 10:54:12;;;;;;;21.17;9.45;;;2.40;69.00;;;;;;4973248;28;20477;-70
2024/01/09 10:56:42;;;;;;;19.17;8.30;;;1.80;66.00;;;;;;4969737;28;20219;-70
2024/01/09 10:59:12;;;;;;;17.88;8.68;;;1.00;69.80;;;;;;4970538;28;20707;-70
2024/01/09 11:01:41;;;;;;;18.98;8.75;;;0.50;71.60;;;;;;4969335;28;20208;-71
2024/01/09 11:04:09;;;;;;;17.38;7.40;;;0.10;73.50;;;;;;4978823;28;20228;-70
2024/01/09 11:06:41;;;;;;;18.10;8.95;;;-0.10;76.00;;;;;;4980995;28;20200;-71
2024/01/09 11:09:16;;;;;;;15.98;7.00;;;-0.10;73.90;;;;;;4980203;28;20199;-70
2024/01/09 11:11:47;;;;;;;20.58;9.50;;;-0.40;74.00;;;;;;4975788;28;20218;-70
2024/01/09 11:14:18;;;;;;;15.77;8.30;;;-0.50;75.20;;;;;;4978954;28;20228;-70
2024/01/09 11:16:52;;;;;;;17.15;8.10;;;-0.60;75.50;;;;;;4979388;28;20215;-70
2024/01/09 11:19:20;;;;;;;17.92;7.72;;;-0.50;77.00;;;;;;4978569;28;20307;-70
2024/01/09 11:21:49;;;;;;;15.95;7.15;;;-0.50;77.30;;;;;;4981993;28;20581;-71
2024/01/09 11:24:25;;;;;;;18.40;8.05;;;-0.40;78.20;;;;;;4981121;28;20230;-71
2024/01/09 11:27:11;;;;;;;20.42;9.73;;;-0.30;76.80;;;;;;4976578;28;20309;-70
2024/01/09 11:29:49;;;;;;;20.10;8.32;;;-0.30;74.70;;;;;;4977329;28;20215;-70
2024/01/09 11:32:27;;;;;;;19.70;7.75;;;-0.30;74.80;;;;;;4979527;28;20211;-71
2024/01/09 11:35:09;;;;;;;15.30;7.70;;;-0.30;77.00;;;;;;4973793;28;20683;-71
2024/01/09 11:37:39;;;;;;;21.25;8.40;;;-0.30;76.70;;;;;;4977570;28;20290;-71
2024/01/09 11:40:09;;;;;;;14.60;7.68;;;-0.30;75.40;;;;;;4977041;28;20621;-71
2024/01/09 11:42:38;;;;;;;17.77;7.78;;;-0.30;75.00;;;;;;4980432;28;20208;-71
2024/01/09 11:45:13;;;;;;;17.30;7.22;;;-0.30;73.40;;;;;;4974367;28;20559;-71
2024/01/09 11:47:44;;;;;;;15.48;7.22;;;-0.40;74.10;;;;;;4970785;28;20214;-71
2024/01/09 11:50:12;;;;;;;19.80;7.43;;;-0.40;75.40;;;;;;4980904;28;20208;-71
2024/01/09 11:52:42;;;;;;;18.67;7.43;;;-0.40;73.70;;;;;;4980885;28;20607;-71
2024/01/09 11:55:12;;;;;;;15.45;7.30;;;-0.40;73.80;;;;;;4983419;28;20206;-71
2024/01/09 11:57:43;;;;;;;15.00;6.40;;;-0.40;73.60;;;;;;4981837;28;20207;-70
2024/01/09 12:00:12;;;;;;;18.05;7.78;;;-0.40;73.30;;;;;;4974935;28;20323;-72
2024/01/09 12:02:41;;;;;;;16.67;7.82;;;-0.40;76.60;;;;;;4979048;28;20740;-71
2024/01/09 12:05:10;;;;;;;16.75;6.50;;;-0.40;75.10;;;;;;4976375;28;20295;-72
2024/01/09 12:07:43;;;;;;;18.52;7.57;;;-0.30;74.80;;;;;;4975811;28;20207;-72
2024/01/09 12:10:11;;;;;;;17.98;7.32;;;-0.20;75.70;;;;;;4973690;28;20675;-72
2024/01/09 12:13:03;;;;;;;18.10;8.35;;;-0.20;72.80;;;;;;4968647;28;20326;-71
2024/01/09 12:15:31;;;;;;;16.23;6.57;;;-0.20;73.00;;;;;;4970346;28;20314;-71
2024/01/09 12:18:02;;;;;;;17.20;7.50;;;-0.20;72.80;;;;;;4970210;28;20592;-72
2024/01/09 12:20:31;;;;;;;18.88;7.65;;;-0.20;73.00;;;;;;4970370;28;20221;-71
2024/01/09 12:22:59;;;;;;;17.33;7.50;;;-0.20;73.40;;;;;;4970065;28;20232;-71
2024/01/09 12:25:27;;;;;;;16.52;7.03;;;-0.20;74.10;;;;;;4973874;28;20302;-71
2024/01/09 12:27:57;;;;;;;16.45;7.07;;;-0.30;74.80;;;;;;4976514;28;20732;-72
2024/01/09 12:30:25;;;;;;;15.73;6.82;;;-0.20;74.10;;;;;;4962598;28;20208;-71
2024/01/09 12:32:53;;;;;;;15.40;6.75;;;-0.10;74.20;;;;;;4969386;28;20785;-71
2024/01/09 12:35:23;;;;;;;16.52;7.13;;;-0.10;72.70;;;;;;4968680;28;20208;-71
2024/01/09 12:37:52;;;;;;;18.35;7.53;;;0.00;73.00;;;;;;4969075;28;20222;-71
2024/01/09 12:40:21;;;;;;;15.95;6.88;;;-0.10;72.90;;;;;;4965266;28;20228;-72
2024/01/09 12:43:08;;;;;;;14.73;6.70;;;0.00;71.80;;;;;;4968897;28;20262;-71
2024/01/09 12:45:35;;;;;;;14.70;6.60;;;0.00;72.60;;;;;;4969563;28;20250;-72
2024/01/09 12:48:07;;;;;;;16.45;7.20;;;0.00;71.90;;;;;;4969088;28;20290;-72